Time;durP1;ratioP1;P1;durP2;ratioP2;P2;SDS_P1;SDS_P2;PMS_P1;PMS_P2;Temp;Humidity;BMP_temperature;BMP_pressure;BME280_temperature;BME280_humidity;BME280_pressure;Samples;Min_cycle;Max_cycle;Signal;HPM_P1;HPM_P2
2023/04/13 08:16:22;;;;;;;;;9.50;7.25;;;;;;;;5112859;27;14179;-69
2023/04/13 08:18:47;;;;;;;;;8.50;7.50;;;;;;;;5128151;27;11451;-71
2023/04/13 08:21:16;;;;;;;;;11.75;8.75;;;;;;;;5126623;27;8821;-72
2023/04/13 08:27:14;;;;;;;;;2.75;2.75;;;;;;;;5128311;27;13329;-71
2023/04/13 08:34:09;;;;;;;;;7.00;5.75;;;;;;;;5107960;27;13534;-71
2023/04/13 08:36:34;;;;;;;;;3.00;3.00;;;;;;;;5106562;28;12148;-71
2023/04/13 08:39:00;;;;;;;;;7.00;7.00;;;;;;;;5107636;28;11445;-70
2023/04/13 08:41:26;;;;;;;;;3.00;3.00;;;;;;;;5112927;27;8840;-74
2023/04/13 08:43:51;;;;;;;;;5.50;3.75;;;;;;;;5115855;27;8840;-71
2023/04/13 08:46:20;;;;;;;;;6.75;3.75;;;;;;;;5118566;27;8828;-71
2023/04/13 08:48:47;;;;;;;;;3.00;3.00;;;;;;;;5117043;27;8792;-71
2023/04/13 08:51:13;;;;;;;;;2.75;2.50;;;;;;;;5116632;27;11343;-71
2023/04/13 08:53:38;;;;;;;;;2.75;2.75;;;;;;;;5120645;27;11395;-73
2023/04/13 08:56:07;;;;;;;;;1.00;1.00;;;;;;;;5103613;28;10961;-72
2023/04/13 08:58:34;;;;;;;;;2.00;1.00;;;;;;;;5107573;28;8795;-74
2023/04/13 09:01:00;;;;;;;;;1.00;0.00;;;;;;;;5107160;28;10754;-74
2023/04/13 09:03:28;;;;;;;;;0.00;0.00;;;;;;;;5107636;28;10628;-74
2023/04/13 09:05:58;;;;;;;;;0.00;0.00;;;;;;;;5107613;28;10541;-74
2023/04/13 09:08:25;;;;;;;;;0.50;0.25;;;;;;;;5107046;28;10622;-72
2023/04/13 09:10:50;;;;;;;;;0.00;0.00;;;;;;;;5107611;28;10407;-72
2023/04/13 09:13:15;;;;;;;;;0.00;0.00;;;;;;;;5107555;28;10401;-75
2023/04/13 09:15:45;;;;;;;;;1.25;0.00;;;;;;;;5109869;27;8772;-71
2023/04/13 09:18:11;;;;;;;;;0.00;0.00;;;;;;;;5116133;27;8923;-71
2023/04/13 09:20:37;;;;;;;;;0.00;0.00;;;;;;;;5105501;28;10246;-71
2023/04/13 09:23:13;;;;;;;;;0.25;0.00;;;;;;;;5107064;28;8792;-71
2023/04/13 09:25:38;;;;;;;;;0.75;0.75;;;;;;;;5107657;28;8821;-71
2023/04/13 09:28:04;;;;;;;;;0.00;0.00;;;;;;;;5106738;28;9694;-72
2023/04/13 09:30:29;;;;;;;;;0.00;0.00;;;;;;;;5107269;28;8798;-72
2023/04/13 09:33:04;;;;;;;;;0.00;0.00;;;;;;;;5105394;28;8847;-71
2023/04/13 09:35:30;;;;;;;;;0.00;0.00;;;;;;;;5106926;28;8807;-72
2023/04/13 09:37:55;;;;;;;;;0.00;0.00;;;;;;;;5106021;28;9581;-71
2023/04/13 09:40:21;;;;;;;;;0.00;0.00;;;;;;;;5109372;27;8836;-71
2023/04/13 09:42:54;;;;;;;;;0.00;0.00;;;;;;;;5105268;28;8827;-71
2023/04/13 09:45:20;;;;;;;;;0.00;0.00;;;;;;;;5092337;28;8804;-71
2023/04/13 09:47:46;;;;;;;;;0.75;0.00;;;;;;;;5110858;28;10115;-72
2023/04/13 09:50:20;;;;;;;;;0.00;0.00;;;;;;;;5111295;28;8821;-71
2023/04/13 09:52:45;;;;;;;;;1.00;0.00;;;;;;;;5111285;28;10109;-70
2023/04/13 09:55:18;;;;;;;;;1.00;0.00;;;;;;;;5095418;28;10286;-75
2023/04/13 09:57:43;;;;;;;;;0.00;0.00;;;;;;;;5091790;28;8796;-75
2023/04/13 10:00:16;;;;;;;;;0.50;0.50;;;;;;;;5098838;28;10426;-75
2023/04/13 10:02:41;;;;;;;;;0.00;0.00;;;;;;;;5113516;27;8997;-74
2023/04/13 10:05:10;;;;;;;;;2.00;0.00;;;;;;;;5100603;28;11282;-73
2023/04/13 10:07:36;;;;;;;;;0.00;0.00;;;;;;;;5093043;28;9549;-82
2023/04/13 10:10:02;;;;;;;;;0.00;0.00;;;;;;;;5047028;28;10378;-79
2023/04/13 10:12:30;;;;;;;;;1.00;0.00;;;;;;;;5051314;28;10506;-81
2023/04/13 10:15:03;;;;;;;;;0.00;0.00;;;;;;;;5043916;28;8805;-79
2023/04/13 10:17:34;;;;;;;;;0.00;0.00;;;;;;;;5049398;28;10479;-79
2023/04/13 10:20:06;;;;;;;;;0.50;0.00;;;;;;;;5052921;28;10617;-79
2023/04/13 10:22:32;;;;;;;;;0.50;0.00;;;;;;;;5031736;28;10754;-82
2023/04/13 10:24:57;;;;;;;;;1.00;0.00;;;;;;;;5031193;28;10709;-79
2023/04/13 10:27:26;;;;;;;;;0.75;0.00;;;;;;;;5033060;28;8812;-82
2023/04/13 10:29:52;;;;;;;;;0.25;0.25;;;;;;;;5033328;28;9672;-81
2023/04/13 10:32:21;;;;;;;;;0.00;0.00;;;;;;;;5030592;28;10832;-78
2023/04/13 10:34:47;;;;;;;;;0.00;0.00;;;;;;;;5031978;28;8869;-78
2023/04/13 10:37:20;;;;;;;;;0.00;0.00;;;;;;;;5031815;28;10773;-75
2023/04/13 10:39:46;;;;;;;;;0.00;0.00;;;;;;;;5031804;28;8792;-73
2023/04/13 10:42:12;;;;;;;;;0.00;0.00;;;;;;;;5027984;28;11336;-73
2023/04/13 10:44:50;;;;;;;;;0.00;0.00;;;;;;;;5026315;28;10812;-73
2023/04/13 10:47:19;;;;;;;;;1.75;0.00;;;;;;;;5031530;28;10643;-74
2023/04/13 10:49:47;;;;;;;;;0.00;0.00;;;;;;;;5030364;28;10541;-73
2023/04/13 10:52:13;;;;;;;;;1.75;0.00;;;;;;;;5028757;28;10688;-73
2023/04/13 10:54:39;;;;;;;;;2.75;0.00;;;;;;;;5030244;28;10577;-73
2023/04/13 10:57:05;;;;;;;;;1.00;0.00;;;;;;;;5029194;28;10828;-71
2023/04/13 10:59:54;;;;;;;;;0.00;0.00;;;;;;;;5031173;28;10625;-74
2023/04/13 11:02:19;;;;;;;;;0.00;0.00;;;;;;;;5029718;28;10681;-72
2023/04/13 11:04:46;;;;;;;;;1.75;0.00;;;;;;;;5031126;28;10467;-72
2023/04/13 11:07:32;;;;;;;;;0.75;0.00;;;;;;;;5031378;28;8969;-70
2023/04/13 11:09:57;;;;;;;;;1.25;0.25;;;;;;;;5031095;28;10415;-70
2023/04/13 11:12:24;;;;;;;;;0.00;0.00;;;;;;;;5029374;28;11390;-70
2023/04/13 11:14:49;;;;;;;;;1.00;0.00;;;;;;;;5031079;28;8939;-70
2023/04/13 11:17:19;;;;;;;;;1.25;1.00;;;;;;;;5029919;28;10735;-70
2023/04/13 11:19:47;;;;;;;;;5.50;2.75;;;;;;;;5028479;28;8843;-73
2023/04/13 11:22:17;;;;;;;;;0.00;0.00;;;;;;;;5027552;28;11201;-71
2023/04/13 11:24:43;;;;;;;;;0.75;0.75;;;;;;;;5031035;28;10946;-69
2023/04/13 11:27:17;;;;;;;;;0.00;0.00;;;;;;;;5031135;28;11171;-71
2023/04/13 11:29:43;;;;;;;;;0.00;0.00;;;;;;;;5030465;28;8807;-69
2023/04/13 11:32:15;;;;;;;;;1.00;0.00;;;;;;;;5027467;28;11469;-71
2023/04/13 11:34:40;;;;;;;;;2.25;0.50;;;;;;;;5028921;28;8833;-71
2023/04/13 11:37:06;;;;;;;;;1.00;0.00;;;;;;;;5029597;28;11390;-73
2023/04/13 11:39:33;;;;;;;;;1.00;0.00;;;;;;;;5029092;28;8817;-74
2023/04/13 11:42:03;;;;;;;;;1.50;0.50;;;;;;;;5026714;28;8848;-72
2023/04/13 11:44:28;;;;;;;;;0.00;0.00;;;;;;;;5029022;28;11392;-73
2023/04/13 11:46:55;;;;;;;;;1.00;0.00;;;;;;;;5029569;28;11457;-76
2023/04/13 11:49:21;;;;;;;;;0.00;0.00;;;;;;;;5030206;28;8788;-73
2023/04/13 11:51:47;;;;;;;;;1.50;1.00;;;;;;;;5028809;28;11411;-77
2023/04/13 11:54:12;;;;;;;;;0.00;0.00;;;;;;;;5030684;28;11398;-75
2023/04/13 11:56:38;;;;;;;;;0.00;0.00;;;;;;;;5030440;28;8812;-76
2023/04/13 11:59:07;;;;;;;;;2.25;1.00;;;;;;;;5030034;28;8845;-73
2023/04/13 12:01:32;;;;;;;;;2.00;0.00;;;;;;;;5028868;28;8870;-76
2023/04/13 12:04:04;;;;;;;;;1.00;0.00;;;;;;;;5030292;28;11416;-75
2023/04/13 12:06:33;;;;;;;;;0.50;0.00;;;;;;;;5030142;28;9531;-76
2023/04/13 12:09:02;;;;;;;;;3.00;0.50;;;;;;;;5030359;28;11401;-76
2023/04/13 12:11:37;;;;;;;;;1.00;0.00;;;;;;;;5026981;28;12428;-76
2023/04/13 12:14:03;;;;;;;;;1.00;0.00;;;;;;;;5030379;28;11447;-73
2023/04/13 12:16:31;;;;;;;;;2.50;0.00;;;;;;;;5028322;28;11440;-75
2023/04/13 12:18:56;;;;;;;;;0.00;0.00;;;;;;;;5039731;28;11406;-73
2023/04/13 12:21:22;;;;;;;;;1.00;1.00;;;;;;;;5032230;28;11455;-72
2023/04/13 12:23:51;;;;;;;;;0.00;0.00;;;;;;;;5029400;28;8825;-74
2023/04/13 12:26:18;;;;;;;;;0.50;0.00;;;;;;;;5023182;28;8824;-75
2023/04/13 12:28:43;;;;;;;;;1.00;0.00;;;;;;;;5019239;28;11389;-72
2023/04/13 12:31:11;;;;;;;;;0.25;0.25;;;;;;;;5027205;28;11470;-72
2023/04/13 12:33:37;;;;;;;;;0.00;0.00;;;;;;;;5029619;28;8831;-71
2023/04/13 12:36:02;;;;;;;;;1.25;0.00;;;;;;;;5029951;28;11395;-71
2023/04/13 12:38:28;;;;;;;;;0.00;0.00;;;;;;;;5029564;28;8870;-73
2023/04/13 12:40:54;;;;;;;;;0.00;0.00;;;;;;;;5026026;28;8862;-73
2023/04/13 12:43:19;;;;;;;;;1.00;0.25;;;;;;;;5029815;28;8819;-72
2023/04/13 12:45:45;;;;;;;;;1.00;0.00;;;;;;;;5029703;28;11442;-73
2023/04/13 12:48:10;;;;;;;;;0.00;0.00;;;;;;;;5029742;28;8828;-72
2023/04/13 12:50:35;;;;;;;;;2.50;1.00;;;;;;;;5026524;28;8828;-73
2023/04/13 12:53:01;;;;;;;;;1.25;1.25;;;;;;;;5029552;28;8823;-73
2023/04/13 12:55:26;;;;;;;;;3.00;0.00;;;;;;;;5030057;28;8808;-72
2023/04/13 12:57:51;;;;;;;;;0.00;0.00;;;;;;;;5029686;28;8796;-73
2023/04/13 13:00:17;;;;;;;;;2.75;1.00;;;;;;;;5024158;28;8843;-73
2023/04/13 13:02:42;;;;;;;;;0.25;0.00;;;;;;;;5011119;28;8846;-73
2023/04/13 13:05:08;;;;;;;;;1.00;1.00;;;;;;;;5015714;28;8849;-73
2023/04/13 13:07:33;;;;;;;;;1.00;0.00;;;;;;;;5029840;28;8847;-73
2023/04/13 13:10:00;;;;;;;;;0.00;0.00;;;;;;;;5027237;28;8816;-74
2023/04/13 13:12:28;;;;;;;;;3.00;1.00;;;;;;;;5026739;28;8873;-74
2023/04/13 13:14:54;;;;;;;;;0.50;0.00;;;;;;;;5028258;28;11440;-77
2023/04/13 13:17:19;;;;;;;;;2.25;0.50;;;;;;;;5029910;28;11460;-75
2023/04/13 13:19:45;;;;;;;;;6.00;0.50;;;;;;;;5027772;28;8960;-73
2023/04/13 13:22:10;;;;;;;;;2.75;0.00;;;;;;;;5032147;28;9408;-73
2023/04/13 13:24:37;;;;;;;;;2.50;1.00;;;;;;;;5033372;28;8812;-75
2023/04/13 13:27:03;;;;;;;;;1.75;0.00;;;;;;;;5033191;28;8809;-72
2023/04/13 13:29:32;;;;;;;;;1.75;0.00;;;;;;;;5033229;28;11429;-75
2023/04/13 13:31:57;;;;;;;;;1.00;0.50;;;;;;;;5028879;28;8875;-77
2023/04/13 13:34:22;;;;;;;;;0.75;0.00;;;;;;;;5033378;28;11508;-74
2023/04/13 13:36:48;;;;;;;;;3.00;2.00;;;;;;;;5033179;28;8806;-72
2023/04/13 13:39:13;;;;;;;;;0.75;0.00;;;;;;;;5033213;28;8889;-71
2023/04/13 13:41:39;;;;;;;;;4.00;2.00;;;;;;;;5023825;28;8798;-72
2023/04/13 13:44:04;;;;;;;;;2.00;1.00;;;;;;;;5033041;28;8815;-71
2023/04/13 13:46:30;;;;;;;;;1.00;1.00;;;;;;;;5031155;28;8851;-72
2023/04/13 13:48:55;;;;;;;;;0.75;0.00;;;;;;;;5031787;28;9510;-70
2023/04/13 13:51:20;;;;;;;;;1.75;0.75;;;;;;;;5031458;28;8811;-71
2023/04/13 13:53:46;;;;;;;;;2.00;0.50;;;;;;;;5031537;28;8870;-72
2023/04/13 13:56:11;;;;;;;;;2.00;0.25;;;;;;;;5030347;28;8815;-72
2023/04/13 13:58:36;;;;;;;;;11.00;6.00;;;;;;;;5031657;28;8816;-72
2023/04/13 14:01:02;;;;;;;;;1.00;1.00;;;;;;;;5032267;28;8799;-72
2023/04/13 14:03:27;;;;;;;;;1.00;1.00;;;;;;;;5032259;28;8820;-72
2023/04/13 14:05:53;;;;;;;;;0.50;0.50;;;;;;;;5032550;28;8963;-72
2023/04/13 14:08:18;;;;;;;;;1.50;1.00;;;;;;;;5032733;28;8899;-72
2023/04/13 14:10:47;;;;;;;;;1.00;0.25;;;;;;;;5032593;28;8850;-72
2023/04/13 14:13:12;;;;;;;;;4.00;0.00;;;;;;;;5032465;28;8804;-72
2023/04/13 14:15:37;;;;;;;;;0.00;0.00;;;;;;;;5031141;28;11445;-72
2023/04/13 14:18:03;;;;;;;;;2.00;1.00;;;;;;;;5033006;28;8788;-72
2023/04/13 14:20:28;;;;;;;;;0.00;0.00;;;;;;;;5032316;28;8800;-71
2023/04/13 14:22:53;;;;;;;;;1.00;1.00;;;;;;;;5031564;28;8823;-72
2023/04/13 14:25:19;;;;;;;;;0.50;0.00;;;;;;;;5032763;28;8931;-73
2023/04/13 14:27:44;;;;;;;;;2.25;0.25;;;;;;;;5032202;28;8815;-72
2023/04/13 14:30:10;;;;;;;;;2.25;1.00;;;;;;;;5032229;28;8791;-72
2023/04/13 14:32:35;;;;;;;;;1.00;0.00;;;;;;;;5030218;28;8856;-73
2023/04/13 14:35:00;;;;;;;;;0.00;0.00;;;;;;;;5032359;28;9581;-70
